Portada
METAR-TAF:

METAR-TAF

Aeroports :

Sandakan, Malàisia

latitud: 05-54N, longitud: 118-04E, altitud: 12 m

Observació

L'informe es va fer fa 15 minuts, a les 01:00 UTC
Vent calma
Temperatura 28°C
Humitat 84%
Pressió 1011 hPa
Visibilitat 10 km o més
Núvols disperses a una alçada de 1600 ft

METAR: WBKS 300100Z 00000KT 9999 SCT016 28/25 Q1011

Hora: 09:15 (01:15 UTC)

Pronòstic

L'informe es va fer fa 2 hores i 15 minuts, a les 23:00 UTC
Pronòstic vàlid del 30 a les 00 UTC al 31 a les 00 UTC
Vent 8 kt del Nord-Est
Visibilitat 10 km o més
Escasses núvols a una alçada de 1500 ft

TAF: WBKS 292300Z 3000/3100 05008KT 9999 FEW015

Observacions i pronòstics meteorològics de més de 4000 aeroports (METAR i TAF).

Les estacions disponibles són els punts grocs i vermells al mapa.

Posi el ratolí al punt desitjat per veure el nom de l'estació.

Feu clic per veure les observacions i els pronòstics meteorològics.

Per canviar el mapa: feu clic els botons verds amb una creu de color negre per apropar; al botó verd amb un guió per allunyar la imatge; o en les fletxes verdes per a mapes adjacents.


METAR-TAF: